Peristerion, Greece
Current Conditions -  °F | °C
As of 4:20 AM on Saturday 29 Nov 2014 (Local Time) from LGEL Reporting Station
Broken Clouds Broken Clouds  
Wind Chill: 14°   Ceiling: 7000
Heat Index: 14°   Visibility: 6mi
Dew Point: 11°   Wind: 0mph
Humidity: 82%   Direction: NA
Pressure: 30.24"   Gusts: NA
Location:  38.02°N, 23.7°E
Report Text: LGEL 290120Z 00000KT 9999 FEW015 SCT025 BKN070 14/11 Q1024
Loading
Personal Weather Stations






























Interactive Weather Map New forecast layout! Learn more

10-Day Weather Forecast

Advertisements
Track Severe Weather on mobile